Time;durP1;ratioP1;P1;durP2;ratioP2;P2;SDS_P1;SDS_P2;PMS_P1;PMS_P2;Temp;Humidity;BMP_temperature;BMP_pressure;BME280_temperature;BME280_humidity;BME280_pressure;Samples;Min_cycle;Max_cycle;Signal;HPM_P1;HPM_P2
2021/10/17 00:01:12;;;;;;;8.83;5.17;;;;;;;;;;5058291;28;20714;-75
2021/10/17 00:03:38;;;;;;;10.03;6.27;;;;;;;;;;5059471;28;20233;-75
2021/10/17 00:06:04;;;;;;;9.77;6.33;;;;;;;;;;5057262;28;20233;-75
2021/10/17 00:08:31;;;;;;;12.70;6.37;;;;;;;;;;5056367;28;20225;-74
2021/10/17 00:10:58;;;;;;;11.77;6.33;;;;;;;;;;5055408;28;20301;-75
2021/10/17 00:13:24;;;;;;;13.17;6.23;;;;;;;;;;5056480;28;20240;-75
2021/10/17 00:15:52;;;;;;;10.07;5.97;;;;;;;;;;5058842;28;20232;-75
2021/10/17 00:18:20;;;;;;;10.27;5.53;;;;;;;;;;5055946;28;20224;-75
2021/10/17 00:20:46;;;;;;;9.80;5.90;;;;;;;;;;5057579;28;20228;-74
2021/10/17 00:23:13;;;;;;;11.67;5.93;;;;;;;;;;5056609;28;20238;-75
2021/10/17 00:25:39;;;;;;;10.40;5.97;;;;;;;;;;5057719;28;20213;-75
2021/10/17 00:28:06;;;;;;;8.47;5.30;;;;;;;;;;5056540;28;20220;-74
2021/10/17 00:30:32;;;;;;;13.50;5.90;;;;;;;;;;5058338;28;20216;-74
2021/10/17 00:33:00;;;;;;;10.47;6.30;;;;;;;;;;5057515;28;20212;-75
2021/10/17 00:35:27;;;;;;;12.83;6.10;;;;;;;;;;5057679;28;20244;-75
2021/10/17 00:37:53;;;;;;;9.83;5.40;;;;;;;;;;5055983;28;20730;-75
2021/10/17 00:40:21;;;;;;;12.43;6.00;;;;;;;;;;5055666;28;20266;-75
2021/10/17 00:42:49;;;;;;;10.07;5.83;;;;;;;;;;5059392;28;20305;-74
2021/10/17 00:45:18;;;;;;;9.67;6.17;;;;;;;;;;5057322;28;20228;-74
2021/10/17 00:47:45;;;;;;;9.87;5.70;;;;;;;;;;5057764;28;20263;-74
2021/10/17 00:50:14;;;;;;;8.97;6.37;;;;;;;;;;5057624;28;20770;-74
2021/10/17 00:52:44;;;;;;;14.80;6.70;;;;;;;;;;5058009;28;20210;-74
2021/10/17 00:55:12;;;;;;;12.30;6.17;;;;;;;;;;5056905;28;20302;-74
2021/10/17 00:57:40;;;;;;;9.13;5.57;;;;;;;;;;5058372;28;20232;-75
2021/10/17 01:00:08;;;;;;;9.63;6.13;;;;;;;;;;5057555;28;20218;-75
2021/10/17 01:02:34;;;;;;;12.57;6.17;;;;;;;;;;5059546;28;20308;-74
2021/10/17 01:05:00;;;;;;;12.13;7.07;;;;;;;;;;5056675;28;20233;-74
2021/10/17 01:07:28;;;;;;;11.60;7.40;;;;;;;;;;5054622;28;20213;-74
2021/10/17 01:09:55;;;;;;;14.50;7.20;;;;;;;;;;5055392;28;20234;-75
2021/10/17 01:12:22;;;;;;;15.07;7.53;;;;;;;;;;5057310;28;20218;-75
2021/10/17 01:14:48;;;;;;;12.33;6.50;;;;;;;;;;5057154;28;20273;-74
2021/10/17 01:17:14;;;;;;;10.70;6.60;;;;;;;;;;5056165;28;20288;-74
2021/10/17 01:19:46;;;;;;;11.00;6.50;;;;;;;;;;5056529;28;20237;-74
2021/10/17 01:22:14;;;;;;;10.60;6.63;;;;;;;;;;5056387;28;20248;-74
2021/10/17 01:24:41;;;;;;;10.77;6.90;;;;;;;;;;5054703;28;20232;-74
2021/10/17 01:27:07;;;;;;;11.30;6.47;;;;;;;;;;5058152;28;20211;-74
2021/10/17 01:29:34;;;;;;;13.57;6.93;;;;;;;;;;5054956;28;20213;-75
2021/10/17 01:32:00;;;;;;;10.03;6.63;;;;;;;;;;5056189;28;20212;-74
2021/10/17 01:34:27;;;;;;;12.37;7.43;;;;;;;;;;5057016;28;20268;-74
2021/10/17 01:36:55;;;;;;;12.00;7.23;;;;;;;;;;5054688;28;21168;-74
2021/10/17 01:39:23;;;;;;;11.73;6.83;;;;;;;;;;5056349;28;20282;-74
2021/10/17 01:41:50;;;;;;;10.67;6.40;;;;;;;;;;5055915;28;20263;-74
2021/10/17 01:44:25;;;;;;;11.77;6.53;;;;;;;;;;5056085;28;20229;-74
2021/10/17 01:46:52;;;;;;;12.10;6.60;;;;;;;;;;5056250;28;20549;-74
2021/10/17 01:49:18;;;;;;;11.37;6.47;;;;;;;;;;5055413;28;20241;-75
2021/10/17 01:51:44;;;;;;;11.33;6.57;;;;;;;;;;5055329;28;20266;-74
2021/10/17 01:54:12;;;;;;;12.10;6.70;;;;;;;;;;5054297;28;20290;-74
2021/10/17 01:56:39;;;;;;;10.90;6.97;;;;;;;;;;5054546;28;20237;-74
2021/10/17 01:59:06;;;;;;;10.63;6.10;;;;;;;;;;5056991;28;20275;-74
2021/10/17 02:01:32;;;;;;;11.73;6.97;;;;;;;;;;5057045;28;20217;-74
2021/10/17 02:04:00;;;;;;;12.33;7.07;;;;;;;;;;5056418;28;20288;-74
2021/10/17 02:06:28;;;;;;;9.20;6.43;;;;;;;;;;5054630;28;20794;-74
2021/10/17 02:08:54;;;;;;;11.43;7.17;;;;;;;;;;5052372;28;20700;-74
2021/10/17 02:11:22;;;;;;;11.23;6.63;;;;;;;;;;5055131;28;20294;-74
2021/10/17 02:13:48;;;;;;;11.87;6.83;;;;;;;;;;5053086;28;20244;-74
2021/10/17 02:16:15;;;;;;;16.83;7.40;;;;;;;;;;5057213;28;20303;-74
2021/10/17 02:18:41;;;;;;;17.87;7.63;;;;;;;;;;5053898;28;20731;-74
2021/10/17 02:21:07;;;;;;;18.23;7.13;;;;;;;;;;5055055;28;20222;-74
2021/10/17 02:23:34;;;;;;;10.53;6.70;;;;;;;;;;5055006;28;20642;-74
2021/10/17 02:26:01;;;;;;;12.10;6.43;;;;;;;;;;5056746;28;20262;-74
2021/10/17 02:28:29;;;;;;;10.63;5.97;;;;;;;;;;5054452;28;20651;-74
2021/10/17 02:30:56;;;;;;;10.43;6.37;;;;;;;;;;5053749;28;20213;-74
2021/10/17 02:33:23;;;;;;;14.57;6.70;;;;;;;;;;5054004;28;20216;-74
2021/10/17 02:35:49;;;;;;;13.57;6.80;;;;;;;;;;5054525;28;20288;-74
2021/10/17 02:38:16;;;;;;;11.20;6.27;;;;;;;;;;5055026;28;21115;-74
2021/10/17 02:40:42;;;;;;;14.60;6.17;;;;;;;;;;5052846;28;20216;-74
2021/10/17 02:43:09;;;;;;;10.67;6.07;;;;;;;;;;5053615;28;20239;-74
2021/10/17 02:45:37;;;;;;;9.43;5.97;;;;;;;;;;5055134;28;20725;-74
2021/10/17 02:48:04;;;;;;;14.53;6.17;;;;;;;;;;5054117;28;20213;-74
2021/10/17 02:50:30;;;;;;;15.13;6.00;;;;;;;;;;5055797;28;20285;-74
2021/10/17 02:52:56;;;;;;;9.63;5.70;;;;;;;;;;5055471;28;20216;-74
2021/10/17 02:55:23;;;;;;;13.87;6.60;;;;;;;;;;5053887;28;20338;-74
2021/10/17 02:57:49;;;;;;;12.77;6.90;;;;;;;;;;5054029;28;20752;-74
2021/10/17 03:00:17;;;;;;;9.90;6.20;;;;;;;;;;5053667;28;20216;-74
2021/10/17 03:02:45;;;;;;;13.60;7.17;;;;;;;;;;5051471;28;20208;-74
2021/10/17 03:05:11;;;;;;;9.63;6.17;;;;;;;;;;5054628;28;20245;-74
2021/10/17 03:07:38;;;;;;;14.77;7.23;;;;;;;;;;5055888;28;20695;-74
2021/10/17 03:10:06;;;;;;;12.03;6.93;;;;;;;;;;5054766;28;20220;-74
2021/10/17 03:12:32;;;;;;;8.17;6.73;;;;;;;;;;5053135;28;20244;-74
2021/10/17 03:14:59;;;;;;;14.77;8.10;;;;;;;;;;5054388;28;20715;-74
2021/10/17 03:17:25;;;;;;;13.83;7.60;;;;;;;;;;5053379;28;20278;-74
2021/10/17 03:19:53;;;;;;;16.93;7.97;;;;;;;;;;5056507;28;20233;-74
2021/10/17 03:22:20;;;;;;;13.57;8.03;;;;;;;;;;5053424;28;20272;-75
2021/10/17 03:24:46;;;;;;;13.53;7.87;;;;;;;;;;5054823;28;20722;-74
2021/10/17 03:27:12;;;;;;;12.97;7.37;;;;;;;;;;5054026;28;20270;-74
2021/10/17 03:29:39;;;;;;;13.43;7.60;;;;;;;;;;5055097;28;20219;-74
2021/10/17 03:32:06;;;;;;;13.07;7.13;;;;;;;;;;5053677;28;20212;-74
2021/10/17 03:34:33;;;;;;;14.03;7.60;;;;;;;;;;5059378;28;20265;-74
2021/10/17 03:37:00;;;;;;;12.50;7.03;;;;;;;;;;5057664;28;20231;-74
2021/10/17 03:39:27;;;;;;;18.37;7.80;;;;;;;;;;5057419;28;20688;-74
2021/10/17 03:41:53;;;;;;;13.27;7.97;;;;;;;;;;5059229;28;20209;-74
2021/10/17 03:44:19;;;;;;;13.10;8.07;;;;;;;;;;5056160;28;20707;-74
2021/10/17 03:46:46;;;;;;;14.53;7.97;;;;;;;;;;5057466;28;20670;-74
2021/10/17 03:49:12;;;;;;;15.83;8.13;;;;;;;;;;5057490;28;20301;-74
2021/10/17 03:51:39;;;;;;;12.73;7.57;;;;;;;;;;5059986;28;21270;-74
2021/10/17 03:54:07;;;;;;;13.27;7.50;;;;;;;;;;5056429;28;20233;-74
2021/10/17 03:56:33;;;;;;;14.13;7.70;;;;;;;;;;5056342;28;20783;-74
2021/10/17 03:59:00;;;;;;;12.53;8.27;;;;;;;;;;5058390;28;20247;-74
2021/10/17 04:01:26;;;;;;;12.50;7.43;;;;;;;;;;5057281;28;20589;-74
2021/10/17 04:03:52;;;;;;;14.77;8.13;;;;;;;;;;5056039;28;20282;-74
2021/10/17 04:06:20;;;;;;;14.53;7.87;;;;;;;;;;5057889;28;20812;-74
2021/10/17 04:08:46;;;;;;;9.33;6.97;;;;;;;;;;5056999;28;20239;-74
2021/10/17 04:11:14;;;;;;;15.30;7.97;;;;;;;;;;5057742;28;20255;-74
2021/10/17 04:13:40;;;;;;;13.57;7.70;;;;;;;;;;5057645;28;21083;-74
2021/10/17 04:16:07;;;;;;;13.33;7.67;;;;;;;;;;5057307;28;20346;-74
2021/10/17 04:18:34;;;;;;;15.00;7.67;;;;;;;;;;5055897;28;20725;-74
2021/10/17 04:21:00;;;;;;;11.20;6.70;;;;;;;;;;5057606;28;20209;-74
2021/10/17 04:23:27;;;;;;;12.53;7.57;;;;;;;;;;5057972;28;20636;-74
2021/10/17 04:25:53;;;;;;;13.00;7.80;;;;;;;;;;5057675;28;20269;-74
2021/10/17 04:28:21;;;;;;;15.60;9.07;;;;;;;;;;5057072;28;20211;-74
2021/10/17 04:30:47;;;;;;;15.17;8.03;;;;;;;;;;5058183;28;20216;-74
2021/10/17 04:33:13;;;;;;;19.90;8.47;;;;;;;;;;5057569;28;20606;-72
2021/10/17 04:35:40;;;;;;;13.03;8.00;;;;;;;;;;5058077;28;20233;-73
2021/10/17 04:38:07;;;;;;;16.93;8.67;;;;;;;;;;5057671;28;20267;-73
2021/10/17 04:40:35;;;;;;;14.43;8.60;;;;;;;;;;5056605;28;20212;-73
2021/10/17 04:43:02;;;;;;;10.90;7.37;;;;;;;;;;5056060;28;20224;-73
2021/10/17 04:45:30;;;;;;;13.97;8.73;;;;;;;;;;5056797;28;20294;-73
2021/10/17 04:47:57;;;;;;;12.80;7.67;;;;;;;;;;5057567;28;20215;-73
2021/10/17 04:50:23;;;;;;;14.33;8.83;;;;;;;;;;5055970;28;20300;-73
2021/10/17 04:52:49;;;;;;;14.87;7.50;;;;;;;;;;5055624;28;20269;-73
2021/10/17 04:55:16;;;;;;;14.53;8.97;;;;;;;;;;5056782;28;20211;-73
2021/10/17 04:57:42;;;;;;;11.83;7.67;;;;;;;;;;5056097;28;20859;-73
2021/10/17 05:00:09;;;;;;;13.30;7.87;;;;;;;;;;5057551;28;20208;-73
2021/10/17 05:02:37;;;;;;;11.83;7.37;;;;;;;;;;5056788;28;20710;-73
2021/10/17 05:05:06;;;;;;;14.70;7.87;;;;;;;;;;5056567;28;20246;-73
2021/10/17 05:07:32;;;;;;;14.43;8.87;;;;;;;;;;5057244;28;20212;-72
2021/10/17 05:09:58;;;;;;;15.47;8.47;;;;;;;;;;5057439;28;20614;-73
2021/10/17 05:12:25;;;;;;;13.17;8.53;;;;;;;;;;5055729;28;20200;-73
2021/10/17 05:14:52;;;;;;;17.43;9.20;;;;;;;;;;5057280;28;20295;-73
2021/10/17 05:17:18;;;;;;;17.23;8.60;;;;;;;;;;5056178;28;20235;-73
2021/10/17 05:19:46;;;;;;;18.57;9.93;;;;;;;;;;5055273;28;20633;-73
2021/10/17 05:22:12;;;;;;;12.30;8.23;;;;;;;;;;5054894;28;20216;-73
2021/10/17 05:24:39;;;;;;;13.60;8.30;;;;;;;;;;5058449;28;20704;-72
2021/10/17 05:27:05;;;;;;;16.00;9.17;;;;;;;;;;5058249;28;20269;-73
2021/10/17 05:29:32;;;;;;;14.63;9.50;;;;;;;;;;5057382;28;20305;-73
2021/10/17 05:31:58;;;;;;;14.80;9.27;;;;;;;;;;5055718;28;20207;-73
2021/10/17 05:34:25;;;;;;;12.73;9.03;;;;;;;;;;5055909;28;20643;-73
2021/10/17 05:36:52;;;;;;;14.27;9.07;;;;;;;;;;5056477;28;20267;-73
2021/10/17 05:39:19;;;;;;;13.80;9.13;;;;;;;;;;5055590;28;20232;-73
2021/10/17 05:41:45;;;;;;;17.80;9.33;;;;;;;;;;5056248;28;20212;-73
2021/10/17 05:44:11;;;;;;;15.10;9.13;;;;;;;;;;5053721;28;20740;-73
2021/10/17 05:46:38;;;;;;;18.03;9.93;;;;;;;;;;5056390;28;20216;-72
2021/10/17 05:49:04;;;;;;;16.10;9.13;;;;;;;;;;5056397;28;20690;-72
2021/10/17 05:51:31;;;;;;;16.10;9.03;;;;;;;;;;5054308;28;20206;-72
2021/10/17 05:53:58;;;;;;;18.63;9.47;;;;;;;;;;5055239;28;20285;-72
2021/10/17 05:56:25;;;;;;;14.57;9.40;;;;;;;;;;5053125;28;20811;-73
2021/10/17 05:58:51;;;;;;;15.63;9.60;;;;;;;;;;5055401;28;20232;-72
2021/10/17 06:01:18;;;;;;;15.70;8.83;;;;;;;;;;5056251;28;20289;-72
2021/10/17 06:03:44;;;;;;;14.03;9.13;;;;;;;;;;5053775;28;20272;-72
2021/10/17 06:06:13;;;;;;;16.70;9.37;;;;;;;;;;5052765;28;20240;-72
2021/10/17 06:08:39;;;;;;;18.27;10.03;;;;;;;;;;5053371;28;20239;-72
2021/10/17 06:11:07;;;;;;;13.97;9.70;;;;;;;;;;5052767;28;20278;-72
2021/10/17 06:13:35;;;;;;;13.13;8.83;;;;;;;;;;5053323;28;20240;-72
2021/10/17 06:16:01;;;;;;;18.60;9.70;;;;;;;;;;5053259;28;20200;-72
2021/10/17 06:18:28;;;;;;;15.60;9.60;;;;;;;;;;5052916;28;20244;-73
2021/10/17 06:20:55;;;;;;;17.53;9.40;;;;;;;;;;5052794;28;20208;-72
2021/10/17 06:23:21;;;;;;;15.40;9.57;;;;;;;;;;5053763;28;20224;-72
2021/10/17 06:25:47;;;;;;;12.90;9.53;;;;;;;;;;5053200;28;20613;-73
2021/10/17 06:28:15;;;;;;;16.17;9.93;;;;;;;;;;5054824;28;20615;-72
2021/10/17 06:30:41;;;;;;;16.20;10.10;;;;;;;;;;5051878;28;20246;-72
2021/10/17 06:33:08;;;;;;;15.37;9.80;;;;;;;;;;5050170;28;20728;-72
2021/10/17 06:35:34;;;;;;;16.70;9.37;;;;;;;;;;5051892;28;20624;-72
2021/10/17 06:38:01;;;;;;;12.83;9.57;;;;;;;;;;5052633;28;20246;-72
2021/10/17 06:40:27;;;;;;;10.50;8.97;;;;;;;;;;5053566;28;20277;-72
2021/10/17 06:42:53;;;;;;;13.90;9.47;;;;;;;;;;5051684;28;20648;-72
2021/10/17 06:45:21;;;;;;;14.40;10.37;;;;;;;;;;5054365;28;20226;-73
2021/10/17 06:47:48;;;;;;;13.50;9.23;;;;;;;;;;5052137;28;20216;-72
2021/10/17 06:50:17;;;;;;;16.63;10.73;;;;;;;;;;5051688;28;20298;-73
2021/10/17 06:52:43;;;;;;;11.70;9.00;;;;;;;;;;5053338;28;20212;-73
2021/10/17 06:55:10;;;;;;;12.37;9.43;;;;;;;;;;5052532;28;20235;-72
2021/10/17 06:57:36;;;;;;;15.67;10.20;;;;;;;;;;5053433;28;20233;-72
2021/10/17 07:00:04;;;;;;;12.23;9.17;;;;;;;;;;5053873;28;20640;-74
2021/10/17 07:02:32;;;;;;;16.40;10.03;;;;;;;;;;5052620;28;20635;-73
2021/10/17 07:04:59;;;;;;;13.30;9.57;;;;;;;;;;5049396;28;20236;-73
2021/10/17 07:07:25;;;;;;;14.93;9.27;;;;;;;;;;5051389;28;20212;-73
2021/10/17 07:09:51;;;;;;;14.30;9.33;;;;;;;;;;5057256;28;20233;-73
2021/10/17 07:12:18;;;;;;;20.03;9.27;;;;;;;;;;5057202;28;20727;-73
2021/10/17 07:14:44;;;;;;;13.47;9.43;;;;;;;;;;5054087;28;20261;-73
2021/10/17 07:17:10;;;;;;;13.33;9.40;;;;;;;;;;5054822;28;20223;-73
2021/10/17 07:19:38;;;;;;;13.40;9.13;;;;;;;;;;5056356;28;20286;-73
2021/10/17 07:22:05;;;;;;;16.17;9.47;;;;;;;;;;5053994;28;20739;-73
2021/10/17 07:24:31;;;;;;;18.10;9.73;;;;;;;;;;5056823;28;20323;-73
2021/10/17 07:26:58;;;;;;;15.97;9.70;;;;;;;;;;5056736;28;20606;-73
2021/10/17 07:29:25;;;;;;;15.20;9.87;;;;;;;;;;5056781;28;20566;-72
2021/10/17 07:31:51;;;;;;;16.60;10.10;;;;;;;;;;5056659;28;20290;-73
2021/10/17 07:34:18;;;;;;;12.60;9.40;;;;;;;;;;5057651;28;20238;-72
2021/10/17 07:36:45;;;;;;;15.80;9.50;;;;;;;;;;5054494;28;20627;-73
2021/10/17 07:39:12;;;;;;;18.17;9.97;;;;;;;;;;5055989;28;20356;-73
2021/10/17 07:41:41;;;;;;;14.80;10.00;;;;;;;;;;5057009;28;20277;-73
2021/10/17 07:44:08;;;;;;;18.13;10.53;;;;;;;;;;5055864;28;20231;-73
2021/10/17 07:46:34;;;;;;;17.83;9.50;;;;;;;;;;5056337;28;20628;-73
2021/10/17 07:49:01;;;;;;;13.10;9.70;;;;;;;;;;5054279;28;20264;-73
2021/10/17 07:51:27;;;;;;;14.97;9.03;;;;;;;;;;5056736;28;20288;-73
2021/10/17 07:53:55;;;;;;;13.50;10.13;;;;;;;;;;5058940;28;20228;-73
2021/10/17 07:56:21;;;;;;;13.33;9.00;;;;;;;;;;5055323;28;20277;-73
2021/10/17 07:58:50;;;;;;;12.83;9.40;;;;;;;;;;5057252;28;20263;-73
2021/10/17 08:01:16;;;;;;;14.40;9.70;;;;;;;;;;5058732;28;20262;-73
2021/10/17 08:03:43;;;;;;;16.30;10.63;;;;;;;;;;5056822;28;20232;-73
2021/10/17 08:06:09;;;;;;;15.07;9.60;;;;;;;;;;5054787;28;20290;-72
2021/10/17 08:08:35;;;;;;;16.03;10.13;;;;;;;;;;5057538;28;20250;-73
2021/10/17 08:11:03;;;;;;;15.80;9.07;;;;;;;;;;5056328;28;20213;-73
2021/10/17 08:13:30;;;;;;;16.70;10.27;;;;;;;;;;5054119;28;20256;-73
2021/10/17 08:15:56;;;;;;;14.00;8.93;;;;;;;;;;5055363;28;20572;-72
2021/10/17 08:18:26;;;;;;;14.07;9.97;;;;;;;;;;5055331;28;20306;-73
2021/10/17 08:20:52;;;;;;;14.70;9.70;;;;;;;;;;5055282;28;20698;-73
2021/10/17 08:23:19;;;;;;;13.27;9.60;;;;;;;;;;5055812;28;20364;-73
2021/10/17 08:25:46;;;;;;;14.20;10.00;;;;;;;;;;5057549;28;20274;-73
2021/10/17 08:28:15;;;;;;;15.60;9.13;;;;;;;;;;5053688;28;20213;-73
2021/10/17 08:30:44;;;;;;;15.90;9.43;;;;;;;;;;5056809;28;20224;-73
2021/10/17 08:33:11;;;;;;;15.23;9.80;;;;;;;;;;5055697;28;20213;-73
2021/10/17 08:35:37;;;;;;;17.83;9.47;;;;;;;;;;5055730;28;20295;-73
2021/10/17 08:38:04;;;;;;;16.20;9.60;;;;;;;;;;5055485;28;20236;-73
2021/10/17 08:40:30;;;;;;;12.63;9.83;;;;;;;;;;5056198;28;20781;-73
2021/10/17 08:42:58;;;;;;;16.47;9.40;;;;;;;;;;5053326;28;20220;-73
2021/10/17 08:45:26;;;;;;;13.60;9.10;;;;;;;;;;5054469;28;20201;-73
2021/10/17 08:47:53;;;;;;;19.00;10.03;;;;;;;;;;5057050;28;20214;-73
2021/10/17 08:50:20;;;;;;;15.00;10.10;;;;;;;;;;5057754;28;20757;-72
2021/10/17 08:52:46;;;;;;;13.33;9.40;;;;;;;;;;5055837;28;20641;-73
2021/10/17 08:55:13;;;;;;;15.73;9.20;;;;;;;;;;5053758;28;20280;-73
2021/10/17 08:57:40;;;;;;;14.63;9.47;;;;;;;;;;5057091;28;20779;-73
2021/10/17 09:00:27;;;;;;;11.77;8.83;;;;;;;;;;5054551;28;20310;-73
2021/10/17 09:02:54;;;;;;;14.40;9.40;;;;;;;;;;5056508;28;20298;-73
2021/10/17 09:05:32;;;;;;;17.03;9.80;;;;;;;;;;5056035;28;20255;-73
2021/10/17 09:07:59;;;;;;;14.83;9.53;;;;;;;;;;5057014;28;20210;-73
2021/10/17 09:10:25;;;;;;;12.37;8.83;;;;;;;;;;5056410;28;20667;-73
2021/10/17 09:12:52;;;;;;;15.57;9.73;;;;;;;;;;5054995;28;20298;-73
2021/10/17 09:15:24;;;;;;;16.13;10.37;;;;;;;;;;5056120;28;20257;-73
2021/10/17 09:18:13;;;;;;;15.37;9.57;;;;;;;;;;5055713;28;20228;-73
2021/10/17 09:20:59;;;;;;;15.03;9.17;;;;;;;;;;5054613;28;20236;-73
2021/10/17 09:23:47;;;;;;;13.83;9.30;;;;;;;;;;5054128;28;20233;-73
2021/10/17 09:26:17;;;;;;;14.60;8.60;;;;;;;;;;5047719;28;20212;-74
2021/10/17 09:28:44;;;;;;;12.90;8.70;;;;;;;;;;5056712;28;20322;-73
2021/10/17 09:31:13;;;;;;;14.07;9.73;;;;;;;;;;5054501;28;20228;-73
2021/10/17 09:33:44;;;;;;;12.47;8.73;;;;;;;;;;5054390;28;20290;-73
2021/10/17 09:36:20;;;;;;;12.10;9.23;;;;;;;;;;5054573;28;20298;-73
2021/10/17 09:38:48;;;;;;;13.20;9.10;;;;;;;;;;5054959;28;20236;-73
2021/10/17 09:41:20;;;;;;;13.73;9.07;;;;;;;;;;5055953;28;20278;-72
2021/10/17 09:43:54;;;;;;;19.63;9.40;;;;;;;;;;5053612;28;20245;-73
2021/10/17 09:46:21;;;;;;;10.73;9.10;;;;;;;;;;5053259;28;20295;-73
2021/10/17 09:48:49;;;;;;;10.67;8.80;;;;;;;;;;5054647;28;20241;-73
2021/10/17 09:51:16;;;;;;;14.80;8.70;;;;;;;;;;5054653;28;20609;-73
2021/10/17 09:53:45;;;;;;;13.13;9.50;;;;;;;;;;5054613;28;20230;-73
2021/10/17 09:56:33;;;;;;;14.40;9.47;;;;;;;;;;5055212;28;20252;-73
2021/10/17 09:59:01;;;;;;;13.93;8.90;;;;;;;;;;5054010;28;20526;-73
2021/10/17 10:01:29;;;;;;;11.50;8.53;;;;;;;;;;5054442;28;20638;-73
2021/10/17 10:04:00;;;;;;;13.00;8.63;;;;;;;;;;5054296;28;20222;-73
2021/10/17 10:06:28;;;;;;;15.10;9.00;;;;;;;;;;5054185;28;20264;-73
2021/10/17 10:08:57;;;;;;;12.53;9.50;;;;;;;;;;5052197;28;20234;-73
2021/10/17 10:11:26;;;;;;;14.70;9.73;;;;;;;;;;5054434;28;20314;-73
2021/10/17 10:13:55;;;;;;;13.20;9.27;;;;;;;;;;5034850;28;20700;-72
2021/10/17 10:16:23;;;;;;;13.17;8.80;;;;;;;;;;5050229;28;20218;-73
2021/10/17 10:18:53;;;;;;;11.10;9.10;;;;;;;;;;5050989;28;20242;-72
2021/10/17 10:21:24;;;;;;;14.93;9.90;;;;;;;;;;5051392;28;20242;-72
2021/10/17 10:23:52;;;;;;;16.90;9.67;;;;;;;;;;5052022;28;20225;-72
2021/10/17 10:26:21;;;;;;;14.43;10.13;;;;;;;;;;5051610;28;20288;-72
2021/10/17 10:28:49;;;;;;;13.03;9.40;;;;;;;;;;5055218;28;20221;-75
2021/10/17 10:31:45;;;;;;;14.47;9.87;;;;;;;;;;5053465;28;20822;-74
2021/10/17 10:34:13;;;;;;;12.07;9.47;;;;;;;;;;5053917;28;20245;-75
2021/10/17 10:36:42;;;;;;;12.63;9.33;;;;;;;;;;5052634;28;20214;-72
2021/10/17 10:39:11;;;;;;;10.97;9.70;;;;;;;;;;5053634;28;20242;-71
2021/10/17 10:41:52;;;;;;;14.83;9.50;;;;;;;;;;5054136;28;20286;-71
2021/10/17 10:44:21;;;;;;;14.17;9.90;;;;;;;;;;5051185;28;20214;-72
2021/10/17 10:46:48;;;;;;;14.10;10.10;;;;;;;;;;5054180;28;20221;-71
2021/10/17 10:49:40;;;;;;;12.37;9.60;;;;;;;;;;5052767;28;20467;-72
2021/10/17 10:52:11;;;;;;;12.43;9.43;;;;;;;;;;5052587;28;20434;-71
2021/10/17 10:54:37;;;;;;;14.03;10.47;;;;;;;;;;5052985;28;20225;-72
2021/10/17 10:57:19;;;;;;;13.47;9.17;;;;;;;;;;5050925;28;20209;-72
2021/10/17 11:00:00;;;;;;;10.83;9.63;;;;;;;;;;5054249;28;20283;-72
2021/10/17 11:02:27;;;;;;;14.03;10.13;;;;;;;;;;5053123;28;20881;-71
2021/10/17 11:05:07;;;;;;;13.70;9.57;;;;;;;;;;5051562;28;20230;-72
2021/10/17 11:07:37;;;;;;;13.30;8.37;;;;;;;;;;5052552;28;20206;-72
2021/10/17 11:10:40;;;;;;;16.43;9.50;;;;;;;;;;5052091;28;20229;-72
2021/10/17 11:13:09;;;;;;;11.83;9.00;;;;;;;;;;5048365;28;20249;-72
2021/10/17 11:15:37;;;;;;;15.73;9.53;;;;;;;;;;5052201;28;20230;-72
2021/10/17 11:18:05;;;;;;;13.17;9.20;;;;;;;;;;5051109;28;20301;-72
2021/10/17 11:20:34;;;;;;;14.50;9.07;;;;;;;;;;5051304;28;20570;-72
2021/10/17 11:23:02;;;;;;;17.10;9.17;;;;;;;;;;5050250;28;20719;-71
2021/10/17 11:25:30;;;;;;;10.07;9.00;;;;;;;;;;5051553;28;20229;-72
2021/10/17 11:27:57;;;;;;;13.87;9.27;;;;;;;;;;5052372;28;20260;-72
2021/10/17 11:30:25;;;;;;;11.67;8.93;;;;;;;;;;5051809;28;20211;-71
2021/10/17 11:32:52;;;;;;;10.90;8.83;;;;;;;;;;5052439;28;20217;-72
2021/10/17 11:35:27;;;;;;;12.50;8.70;;;;;;;;;;5049477;28;20227;-72
2021/10/17 11:37:53;;;;;;;11.87;9.17;;;;;;;;;;5051320;28;20672;-71
2021/10/17 11:40:21;;;;;;;15.40;8.43;;;;;;;;;;5050111;28;20254;-71
2021/10/17 11:42:49;;;;;;;9.50;7.40;;;;;;;;;;5051961;28;20279;-71
2021/10/17 11:45:18;;;;;;;10.93;7.90;;;;;;;;;;5051566;28;20214;-71
2021/10/17 11:47:44;;;;;;;14.10;7.83;;;;;;;;;;5049919;28;20218;-71
2021/10/17 11:50:11;;;;;;;13.17;8.47;;;;;;;;;;5051092;28;20231;-71
2021/10/17 11:52:47;;;;;;;13.37;7.90;;;;;;;;;;5052715;28;20223;-71
2021/10/17 11:55:14;;;;;;;12.17;8.40;;;;;;;;;;5055273;28;20249;-71
2021/10/17 11:57:42;;;;;;;15.23;8.50;;;;;;;;;;5053177;28;20259;-72
2021/10/17 12:00:10;;;;;;;10.57;7.90;;;;;;;;;;5052548;28;20231;-71
2021/10/17 12:02:37;;;;;;;13.03;7.53;;;;;;;;;;5055286;28;20255;-71
2021/10/17 12:05:16;;;;;;;10.53;7.17;;;;;;;;;;5056398;28;20348;-71
2021/10/17 12:07:42;;;;;;;11.57;6.63;;;;;;;;;;5055175;28;20211;-73
2021/10/17 12:10:10;;;;;;;9.80;6.77;;;;;;;;;;5054432;28;20226;-72
2021/10/17 12:12:39;;;;;;;8.67;5.50;;;;;;;;;;5054684;28;20310;-72
2021/10/17 12:15:09;;;;;;;7.87;5.37;;;;;;;;;;5057149;28;20693;-71
2021/10/17 12:17:36;;;;;;;8.60;5.67;;;;;;;;;;5054747;28;20228;-72
2021/10/17 12:20:07;;;;;;;7.33;5.10;;;;;;;;;;5054936;28;20273;-71
2021/10/17 12:22:34;;;;;;;8.60;5.00;;;;;;;;;;5054625;28;20226;-72
2021/10/17 12:25:01;;;;;;;9.70;5.70;;;;;;;;;;5053981;28;20297;-72
2021/10/17 12:27:32;;;;;;;6.37;5.00;;;;;;;;;;5054999;28;20214;-71
2021/10/17 12:30:11;;;;;;;8.40;5.57;;;;;;;;;;5054268;28;20202;-72
2021/10/17 12:32:43;;;;;;;7.53;5.17;;;;;;;;;;5052520;28;20233;-71
2021/10/17 12:35:17;;;;;;;7.20;4.70;;;;;;;;;;5053407;28;20236;-71
2021/10/17 12:37:43;;;;;;;8.07;4.87;;;;;;;;;;5054568;28;20290;-72
2021/10/17 12:40:11;;;;;;;8.67;4.83;;;;;;;;;;5054924;28;20234;-72
2021/10/17 12:42:46;;;;;;;8.53;5.30;;;;;;;;;;5052226;28;20215;-72
2021/10/17 12:45:14;;;;;;;7.53;5.57;;;;;;;;;;5053565;28;20579;-72
2021/10/17 12:47:41;;;;;;;7.37;4.87;;;;;;;;;;5055328;28;20786;-72
2021/10/17 12:50:15;;;;;;;10.70;5.53;;;;;;;;;;5055480;28;20274;-72
2021/10/17 12:52:42;;;;;;;7.20;5.30;;;;;;;;;;5055162;28;20215;-72
2021/10/17 12:55:12;;;;;;;8.37;5.53;;;;;;;;;;5054090;28;20230;-72
2021/10/17 12:57:39;;;;;;;8.53;5.17;;;;;;;;;;5054263;28;20304;-72
2021/10/17 13:00:07;;;;;;;6.27;5.20;;;;;;;;;;5052492;28;20241;-72
2021/10/17 13:02:38;;;;;;;8.27;5.93;;;;;;;;;;5050930;28;20716;-72
2021/10/17 13:05:13;;;;;;;8.53;5.53;;;;;;;;;;5052167;28;20231;-73
2021/10/17 13:07:40;;;;;;;11.73;4.83;;;;;;;;;;5054321;28;20217;-74
2021/10/17 13:10:08;;;;;;;9.90;5.20;;;;;;;;;;5054409;28;20907;-74
2021/10/17 13:12:43;;;;;;;8.87;4.70;;;;;;;;;;5054409;28;20239;-75
2021/10/17 13:15:11;;;;;;;7.83;5.47;;;;;;;;;;5055097;28;20607;-72
2021/10/17 13:17:41;;;;;;;8.47;5.57;;;;;;;;;;5055299;28;20215;-72
2021/10/17 13:20:11;;;;;;;7.83;4.77;;;;;;;;;;5055500;28;20283;-72
2021/10/17 13:22:40;;;;;;;8.43;5.00;;;;;;;;;;5053986;28;20276;-71
2021/10/17 13:25:07;;;;;;;12.97;5.63;;;;;;;;;;5051759;28;20232;-72
2021/10/17 13:27:34;;;;;;;10.87;5.37;;;;;;;;;;5054924;28;20269;-72
2021/10/17 13:30:00;;;;;;;7.57;4.87;;;;;;;;;;5054037;28;20206;-72
2021/10/17 13:32:27;;;;;;;6.63;5.40;;;;;;;;;;5053691;28;20213;-72
2021/10/17 13:34:56;;;;;;;6.43;5.10;;;;;;;;;;5052430;28;20264;-72
2021/10/17 13:37:23;;;;;;;8.30;5.07;;;;;;;;;;5052565;28;20602;-72
2021/10/17 13:39:49;;;;;;;10.13;4.87;;;;;;;;;;5054182;28;20385;-72
2021/10/17 13:42:16;;;;;;;6.03;4.40;;;;;;;;;;5051465;28;20214;-72
2021/10/17 13:44:43;;;;;;;8.87;4.40;;;;;;;;;;5055459;28;20272;-72
2021/10/17 13:47:09;;;;;;;6.90;3.97;;;;;;;;;;5052976;28;20295;-72
2021/10/17 13:49:36;;;;;;;4.90;3.93;;;;;;;;;;5053319;28;20365;-72
2021/10/17 13:52:05;;;;;;;7.60;4.47;;;;;;;;;;5053268;28;20619;-74
2021/10/17 13:54:32;;;;;;;8.27;4.57;;;;;;;;;;5053148;28;20276;-72
2021/10/17 13:56:58;;;;;;;6.67;4.10;;;;;;;;;;5052923;28;20259;-72
2021/10/17 13:59:25;;;;;;;6.53;3.63;;;;;;;;;;5053326;28;20210;-72
2021/10/17 14:01:52;;;;;;;6.70;3.30;;;;;;;;;;5051924;28;20219;-72
2021/10/17 14:04:19;;;;;;;5.33;3.37;;;;;;;;;;5051794;28;20755;-72
2021/10/17 14:06:46;;;;;;;6.90;3.83;;;;;;;;;;5054658;28;20234;-72
2021/10/17 14:09:14;;;;;;;5.53;4.20;;;;;;;;;;5051175;28;20249;-73
2021/10/17 14:11:42;;;;;;;5.90;3.57;;;;;;;;;;5052075;28;20217;-72
2021/10/17 14:14:08;;;;;;;8.50;3.53;;;;;;;;;;5052600;28;20251;-72
2021/10/17 14:16:35;;;;;;;4.37;3.13;;;;;;;;;;5052970;28;20229;-72
2021/10/17 14:19:01;;;;;;;5.57;3.27;;;;;;;;;;5053030;28;20969;-72
2021/10/17 14:21:27;;;;;;;5.37;3.60;;;;;;;;;;5052455;28;20295;-72
2021/10/17 14:23:54;;;;;;;5.00;3.93;;;;;;;;;;5052328;28;20240;-72
2021/10/17 14:26:22;;;;;;;6.00;3.43;;;;;;;;;;5050664;28;20264;-72
2021/10/17 14:28:50;;;;;;;4.97;3.07;;;;;;;;;;5052555;28;20272;-72
2021/10/17 14:31:16;;;;;;;7.07;3.40;;;;;;;;;;5050114;28;20209;-72
2021/10/17 14:33:43;;;;;;;5.80;3.67;;;;;;;;;;5053064;28;21336;-72
2021/10/17 14:36:09;;;;;;;7.73;3.33;;;;;;;;;;5050552;28;20218;-72